UAE205 MMUN-CYYZ
Flight info
| Callsign | UAE205 |
|---|---|
| Flight time | N/A |
| Altitude | 37000 |
| Route | ROTGI2A ROTGI UM219 MYDIA DCT CIGAR DCT HEVVN DCT SPA DCT OXMAN LINNG3 |
| Aircraft | A388/J-SADE2E3FGHIJ3J4J5M1RWXY/LB1D1 |
Departure
| Time | 2026-04-30 20:52 |
|---|---|
| Airport | Cancún International Airport (MMUN) |
Arrival
| Time | N/A |
|---|---|
| Airport | Toronto Pearson International Airport (CYYZ) |
| Time | Latitude | Longitude | Altitude | Speed | Heading |
|---|---|---|---|---|---|
| 2026-04-30 20:13 | 21.03729 | -86.86671 | 37 ft | 0 kts | 303° |
| 2026-04-30 20:25 | 21.03728 | -86.86670 | 37 ft | 2 kts | 304° |
| 2026-04-30 20:26 | 21.03707 | -86.86649 | 37 ft | 1 kts | 313° |
| 2026-04-30 20:26 | 21.03694 | -86.86620 | 37 ft | 3 kts | 267° |
| 2026-04-30 20:26 | 21.03697 | -86.86602 | 37 ft | 2 kts | 243° |
| 2026-04-30 20:27 | 21.03712 | -86.86581 | 37 ft | 1 kts | 214° |
| 2026-04-30 20:27 | 21.03713 | -86.86580 | 37 ft | 0 kts | 214° |
| 2026-04-30 20:41 | 21.03704 | -86.86587 | 37 ft | 5 kts | 214° |
| 2026-04-30 20:41 | 21.03663 | -86.86617 | 37 ft | 9 kts | 214° |
| 2026-04-30 20:41 | 21.03600 | -86.86662 | 37 ft | 13 kts | 213° |
| 2026-04-30 20:41 | 21.03515 | -86.86722 | 37 ft | 17 kts | 213° |
| 2026-04-30 20:42 | 21.03431 | -86.86782 | 37 ft | 15 kts | 213° |
| 2026-04-30 20:42 | 21.03355 | -86.86846 | 37 ft | 13 kts | 240° |
| 2026-04-30 20:42 | 21.03427 | -86.87017 | 37 ft | 15 kts | 304° |
| 2026-04-30 20:43 | 21.03488 | -86.87113 | 37 ft | 16 kts | 304° |
| 2026-04-30 20:43 | 21.03555 | -86.87220 | 37 ft | 18 kts | 304° |
| 2026-04-30 20:43 | 21.03627 | -86.87336 | 37 ft | 20 kts | 304° |
| 2026-04-30 20:44 | 21.03791 | -86.87599 | 37 ft | 23 kts | 303° |
| 2026-04-30 20:44 | 21.03876 | -86.87735 | 37 ft | 21 kts | 303° |
| 2026-04-30 20:44 | 21.04020 | -86.87965 | 37 ft | 16 kts | 304° |
| 2026-04-30 20:45 | 21.04146 | -86.88164 | 37 ft | 17 kts | 304° |
| 2026-04-30 20:45 | 21.04213 | -86.88271 | 37 ft | 18 kts | 304° |
| 2026-04-30 20:45 | 21.04283 | -86.88383 | 37 ft | 18 kts | 303° |
| 2026-04-30 20:46 | 21.04467 | -86.88678 | 37 ft | 14 kts | 303° |
| 2026-04-30 20:46 | 21.04519 | -86.88762 | 37 ft | 13 kts | 303° |
| 2026-04-30 20:47 | 21.04619 | -86.88924 | 37 ft | 10 kts | 303° |
| 2026-04-30 20:47 | 21.04635 | -86.88980 | 37 ft | 6 kts | 265° |
| 2026-04-30 20:48 | 21.04629 | -86.89000 | 37 ft | 0 kts | 246° |
| 2026-04-30 20:49 | 21.04628 | -86.89001 | 37 ft | 0 kts | 245° |
| 2026-04-30 20:49 | 21.04626 | -86.89004 | 37 ft | 0 kts | 242° |
| 2026-04-30 20:49 | 21.04618 | -86.89016 | 37 ft | 6 kts | 231° |
| 2026-04-30 20:50 | 21.04493 | -86.89030 | 37 ft | 11 kts | 137° |
| 2026-04-30 20:50 | 21.04468 | -86.88996 | 37 ft | 1 kts | 124° |
| 2026-04-30 20:51 | 21.04458 | -86.88981 | 37 ft | 17 kts | 124° |
| 2026-04-30 20:51 | 21.03822 | -86.87969 | 37 ft | 147 kts | 124° |
| 2026-04-30 20:51 | 21.03160 | -86.86917 | 367 ft | 186 kts | 125° |
| 2026-04-30 20:52 | 21.02428 | -86.85678 | 969 ft | 206 kts | 123° |
| 2026-04-30 20:52 | 21.01705 | -86.84346 | 1419 ft | 211 kts | 113° |
| 2026-04-30 20:52 | 21.01707 | -86.81207 | 2333 ft | 222 kts | 77° |
| 2026-04-30 20:53 | 21.02171 | -86.79502 | 2912 ft | 255 kts | 75° |
| 2026-04-30 20:53 | 21.02691 | -86.77666 | 3859 ft | 266 kts | 75° |
| 2026-04-30 20:53 | 21.03233 | -86.75776 | 4736 ft | 271 kts | 75° |
| 2026-04-30 20:54 | 21.04524 | -86.71929 | 6127 ft | 283 kts | 61° |
| 2026-04-30 20:54 | 21.05740 | -86.70275 | 6765 ft | 289 kts | 43° |
| 2026-04-30 20:54 | 21.07370 | -86.69025 | 7409 ft | 293 kts | 34° |
| 2026-04-30 20:55 | 21.11071 | -86.67075 | 8848 ft | 320 kts | 12° |
| 2026-04-30 20:55 | 21.13343 | -86.66822 | 9683 ft | 344 kts | 4° |
| 2026-04-30 20:55 | 21.15824 | -86.66773 | 10511 ft | 371 kts | 0° |
| 2026-04-30 20:56 | 21.21266 | -86.66857 | 12108 ft | 405 kts | 0° |
| 2026-04-30 20:56 | 21.24071 | -86.66895 | 12861 ft | 408 kts | 0° |
| 2026-04-30 20:56 | 21.29753 | -86.66923 | 14364 ft | 415 kts | 0° |
| 2026-04-30 20:57 | 21.32629 | -86.66937 | 15116 ft | 418 kts | 0° |
| 2026-04-30 20:57 | 21.35551 | -86.66951 | 15778 ft | 422 kts | 0° |
| 2026-04-30 20:57 | 21.38477 | -86.66965 | 16390 ft | 425 kts | 0° |
| 2026-04-30 20:58 | 21.44413 | -86.66993 | 17394 ft | 431 kts | 0° |
| 2026-04-30 20:58 | 21.47401 | -86.67007 | 17890 ft | 433 kts | 0° |
| 2026-04-30 20:58 | 21.50409 | -86.67021 | 18271 ft | 436 kts | 0° |
| 2026-04-30 20:58 | 21.53433 | -86.67035 | 18646 ft | 438 kts | 0° |
| 2026-04-30 20:59 | 21.59547 | -86.67063 | 19259 ft | 442 kts | 360° |
| 2026-04-30 20:59 | 21.62602 | -86.67078 | 19757 ft | 442 kts | 360° |
| 2026-04-30 21:00 | 21.68736 | -86.67106 | 20755 ft | 446 kts | 360° |
| 2026-04-30 21:00 | 21.74939 | -86.67135 | 21754 ft | 451 kts | 359° |
| 2026-04-30 21:01 | 21.81236 | -86.67162 | 22755 ft | 456 kts | 0° |
| 2026-04-30 21:01 | 21.84381 | -86.66833 | 23238 ft | 459 kts | 9° |
| 2026-04-30 21:01 | 21.90584 | -86.65172 | 24247 ft | 466 kts | 15° |
| 2026-04-30 21:02 | 21.93684 | -86.64187 | 24747 ft | 469 kts | 15° |
| 2026-04-30 21:02 | 21.96802 | -86.63194 | 25246 ft | 472 kts | 15° |
| 2026-04-30 21:02 | 21.99962 | -86.62186 | 25712 ft | 475 kts | 15° |
| 2026-04-30 21:02 | 22.03123 | -86.61175 | 26110 ft | 479 kts | 15° |
| 2026-04-30 21:03 | 22.06308 | -86.60160 | 26482 ft | 482 kts | 15° |
| 2026-04-30 21:03 | 22.09508 | -86.59139 | 26855 ft | 484 kts | 15° |
| 2026-04-30 21:03 | 22.12725 | -86.58111 | 27235 ft | 486 kts | 15° |
| 2026-04-30 21:03 | 22.15953 | -86.57079 | 27616 ft | 488 kts | 15° |
| 2026-04-30 21:04 | 22.19197 | -86.56041 | 27996 ft | 491 kts | 15° |
| 2026-04-30 21:04 | 22.22481 | -86.54991 | 28359 ft | 493 kts | 15° |
| 2026-04-30 21:04 | 22.29135 | -86.52860 | 29042 ft | 510 kts | 15° |
| 2026-04-30 21:05 | 22.32527 | -86.51772 | 29352 ft | 516 kts | 15° |
| 2026-04-30 21:05 | 22.35963 | -86.50671 | 29613 ft | 519 kts | 15° |
| 2026-04-30 21:05 | 22.39404 | -86.49566 | 29864 ft | 519 kts | 15° |
| 2026-04-30 21:05 | 22.42843 | -86.48462 | 30113 ft | 518 kts | 15° |
| 2026-04-30 21:06 | 22.46297 | -86.47353 | 30364 ft | 516 kts | 14° |
| 2026-04-30 21:06 | 22.49710 | -86.46256 | 30612 ft | 514 kts | 14° |
| 2026-04-30 21:06 | 22.53112 | -86.45162 | 30860 ft | 512 kts | 14° |
| 2026-04-30 21:06 | 22.56496 | -86.44073 | 31107 ft | 510 kts | 14° |
| 2026-04-30 21:07 | 22.59869 | -86.42988 | 31353 ft | 508 kts | 14° |
| 2026-04-30 21:07 | 22.63228 | -86.41906 | 31599 ft | 506 kts | 14° |
| 2026-04-30 21:07 | 22.66596 | -86.40821 | 31846 ft | 504 kts | 14° |
| 2026-04-30 21:07 | 22.69929 | -86.39746 | 32091 ft | 502 kts | 14° |
| 2026-04-30 21:08 | 22.73250 | -86.38677 | 32335 ft | 500 kts | 14° |
| 2026-04-30 21:08 | 22.76565 | -86.37606 | 32582 ft | 500 kts | 14° |
| 2026-04-30 21:08 | 22.79877 | -86.36537 | 32828 ft | 500 kts | 14° |
| 2026-04-30 21:08 | 22.83183 | -86.35470 | 33072 ft | 498 kts | 14° |
| 2026-04-30 21:09 | 22.86483 | -86.34402 | 33313 ft | 496 kts | 14° |
| 2026-04-30 21:09 | 22.89767 | -86.33341 | 33550 ft | 495 kts | 14° |
| 2026-04-30 21:09 | 22.93064 | -86.32276 | 33790 ft | 493 kts | 15° |
| 2026-04-30 21:09 | 22.96326 | -86.31219 | 34027 ft | 491 kts | 14° |
| 2026-04-30 21:10 | 22.99579 | -86.30166 | 34261 ft | 491 kts | 14° |
| 2026-04-30 21:10 | 23.02825 | -86.29113 | 34497 ft | 490 kts | 14° |
| 2026-04-30 21:10 | 23.06067 | -86.28062 | 34725 ft | 489 kts | 14° |
| 2026-04-30 21:10 | 23.09305 | -86.27013 | 34908 ft | 489 kts | 14° |
| 2026-04-30 21:11 | 23.12540 | -86.25964 | 35105 ft | 488 kts | 14° |
| 2026-04-30 21:11 | 23.15791 | -86.24908 | 35309 ft | 487 kts | 14° |
| 2026-04-30 21:11 | 23.19012 | -86.23862 | 35508 ft | 486 kts | 14° |
| 2026-04-30 21:11 | 23.22231 | -86.22815 | 35707 ft | 486 kts | 14° |
| 2026-04-30 21:12 | 23.25446 | -86.21770 | 35907 ft | 484 kts | 14° |
| 2026-04-30 21:12 | 23.28651 | -86.20727 | 36105 ft | 483 kts | 14° |
| 2026-04-30 21:12 | 23.31850 | -86.19687 | 36302 ft | 483 kts | 14° |
| 2026-04-30 21:12 | 23.35047 | -86.18646 | 36500 ft | 482 kts | 13° |
| 2026-04-30 21:13 | 23.38260 | -86.17599 | 36698 ft | 482 kts | 13° |
| 2026-04-30 21:13 | 23.41447 | -86.16561 | 36889 ft | 481 kts | 13° |
| 2026-04-30 21:13 | 23.47836 | -86.14478 | 36930 ft | 483 kts | 13° |